sensor_id;sensor_type;location;lat;lon;timestamp;pressure;altitude;pressure_sealevel;temperature;humidity
75555;BME280;66087;53.126;17.960;2023-08-08T00:01:51;99789.88;;;13.45;64.65
75555;BME280;66087;53.126;17.960;2023-08-08T00:04:22;99791.27;;;13.41;64.71
75555;BME280;66087;53.126;17.960;2023-08-08T00:06:51;99793.16;;;13.38;64.71
75555;BME280;66087;53.126;17.960;2023-08-08T00:09:18;99785.36;;;13.36;64.87
75555;BME280;66087;53.126;17.960;2023-08-08T00:11:47;99788.21;;;13.34;64.84
75555;BME280;66087;53.126;17.960;2023-08-08T00:14:15;99787.83;;;13.33;64.94
75555;BME280;66087;53.126;17.960;2023-08-08T00:16:45;99789.44;;;13.33;64.90
75555;BME280;66087;53.126;17.960;2023-08-08T00:19:11;99789.27;;;13.36;64.85
75555;BME280;66087;53.126;17.960;2023-08-08T00:21:38;99797.80;;;13.37;64.79
75555;BME280;66087;53.126;17.960;2023-08-08T00:24:08;99785.36;;;13.38;64.74
75555;BME280;66087;53.126;17.960;2023-08-08T00:26:35;99786.62;;;13.35;64.81
75555;BME280;66087;53.126;17.960;2023-08-08T00:29:04;99783.70;;;13.33;64.88
75555;BME280;66087;53.126;17.960;2023-08-08T00:31:30;99781.09;;;13.27;64.94
75555;BME280;66087;53.126;17.960;2023-08-08T00:33:57;99787.02;;;13.23;65.11
75555;BME280;66087;53.126;17.960;2023-08-08T00:36:25;99784.19;;;13.22;65.04
75555;BME280;66087;53.126;17.960;2023-08-08T00:38:52;99793.82;;;13.20;65.18
75555;BME280;66087;53.126;17.960;2023-08-08T00:41:19;99792.14;;;13.20;65.16
75555;BME280;66087;53.126;17.960;2023-08-08T00:43:48;99789.41;;;13.18;65.28
75555;BME280;66087;53.126;17.960;2023-08-08T00:46:18;99787.05;;;13.14;65.45
75555;BME280;66087;53.126;17.960;2023-08-08T00:48:47;99794.55;;;13.12;65.51
75555;BME280;66087;53.126;17.960;2023-08-08T00:51:14;99799.47;;;13.09;65.68
75555;BME280;66087;53.126;17.960;2023-08-08T00:53:42;99808.33;;;13.07;65.79
75555;BME280;66087;53.126;17.960;2023-08-08T00:56:13;99796.54;;;13.08;66.06
75555;BME280;66087;53.126;17.960;2023-08-08T00:58:45;99796.77;;;13.06;66.17
75555;BME280;66087;53.126;17.960;2023-08-08T01:01:12;99803.70;;;13.04;66.24
75555;BME280;66087;53.126;17.960;2023-08-08T01:03:40;99795.98;;;13.01;66.50
75555;BME280;66087;53.126;17.960;2023-08-08T01:06:25;99802.30;;;12.99;66.78
75555;BME280;66087;53.126;17.960;2023-08-08T01:08:59;99803.47;;;12.97;67.03
75555;BME280;66087;53.126;17.960;2023-08-08T01:11:30;99810.86;;;12.96;67.13
75555;BME280;66087;53.126;17.960;2023-08-08T01:14:03;99818.26;;;12.96;67.37
75555;BME280;66087;53.126;17.960;2023-08-08T01:16:31;99820.98;;;12.96;67.54
75555;BME280;66087;53.126;17.960;2023-08-08T01:18:58;99816.68;;;12.94;67.63
75555;BME280;66087;53.126;17.960;2023-08-08T01:21:27;99823.52;;;12.92;67.75
75555;BME280;66087;53.126;17.960;2023-08-08T01:26:40;99817.84;;;12.90;68.00
75555;BME280;66087;53.126;17.960;2023-08-08T01:29:07;99819.29;;;12.88;68.23
75555;BME280;66087;53.126;17.960;2023-08-08T01:31:36;99822.63;;;12.87;68.56
75555;BME280;66087;53.126;17.960;2023-08-08T01:34:04;99826.67;;;12.85;68.61
75555;BME280;66087;53.126;17.960;2023-08-08T01:36:38;99820.14;;;12.84;68.68
75555;BME280;66087;53.126;17.960;2023-08-08T01:39:26;99818.25;;;12.82;68.84
75555;BME280;66087;53.126;17.960;2023-08-08T01:41:54;99811.75;;;12.79;69.19
75555;BME280;66087;53.126;17.960;2023-08-08T01:44:23;99810.75;;;12.76;69.25
75555;BME280;66087;53.126;17.960;2023-08-08T01:47:14;99815.23;;;12.75;69.29
75555;BME280;66087;53.126;17.960;2023-08-08T01:49:41;99819.00;;;12.74;69.42
75555;BME280;66087;53.126;17.960;2023-08-08T01:52:08;99821.64;;;12.73;69.61
75555;BME280;66087;53.126;17.960;2023-08-08T01:54:35;99815.10;;;12.70;69.75
75555;BME280;66087;53.126;17.960;2023-08-08T01:57:02;99817.81;;;12.68;69.88
75555;BME280;66087;53.126;17.960;2023-08-08T01:59:29;99818.09;;;12.69;69.97
75555;BME280;66087;53.126;17.960;2023-08-08T02:01:57;99821.89;;;12.70;70.35
75555;BME280;66087;53.126;17.960;2023-08-08T02:04:23;99831.64;;;12.74;70.48
75555;BME280;66087;53.126;17.960;2023-08-08T02:06:51;99826.98;;;12.81;70.18
75555;BME280;66087;53.126;17.960;2023-08-08T02:09:18;99827.27;;;12.86;70.24
75555;BME280;66087;53.126;17.960;2023-08-08T02:11:45;99834.68;;;12.90;70.30
75555;BME280;66087;53.126;17.960;2023-08-08T02:14:12;99832.89;;;12.94;70.23
75555;BME280;66087;53.126;17.960;2023-08-08T02:16:39;99829.80;;;12.98;70.27
75555;BME280;66087;53.126;17.960;2023-08-08T02:19:08;99829.95;;;13.00;70.33
75555;BME280;66087;53.126;17.960;2023-08-08T02:21:35;99835.83;;;12.99;70.23
75555;BME280;66087;53.126;17.960;2023-08-08T02:24:04;99827.73;;;12.97;70.43
75555;BME280;66087;53.126;17.960;2023-08-08T02:26:35;99831.10;;;12.94;70.82
75555;BME280;66087;53.126;17.960;2023-08-08T02:29:15;99838.12;;;12.91;70.90
75555;BME280;66087;53.126;17.960;2023-08-08T02:31:41;99833.56;;;12.90;70.86
75555;BME280;66087;53.126;17.960;2023-08-08T02:34:09;99838.12;;;12.87;71.05
75555;BME280;66087;53.126;17.960;2023-08-08T02:36:36;99835.58;;;12.84;71.31
75555;BME280;66087;53.126;17.960;2023-08-08T02:39:05;99837.14;;;12.82;71.43
75555;BME280;66087;53.126;17.960;2023-08-08T02:41:33;99839.85;;;12.80;71.25
75555;BME280;66087;53.126;17.960;2023-08-08T02:44:00;99843.79;;;12.79;71.59
75555;BME280;66087;53.126;17.960;2023-08-08T02:46:27;99841.09;;;12.78;71.78
75555;BME280;66087;53.126;17.960;2023-08-08T02:48:54;99845.58;;;12.79;71.79
75555;BME280;66087;53.126;17.960;2023-08-08T02:51:21;99848.20;;;12.82;71.92
75555;BME280;66087;53.126;17.960;2023-08-08T02:53:48;99851.71;;;12.84;71.78
75555;BME280;66087;53.126;17.960;2023-08-08T02:56:15;99848.00;;;12.88;71.88
75555;BME280;66087;53.126;17.960;2023-08-08T02:58:42;99851.39;;;12.91;71.80
75555;BME280;66087;53.126;17.960;2023-08-08T03:01:10;99845.57;;;12.95;71.81
75555;BME280;66087;53.126;17.960;2023-08-08T03:03:40;99847.05;;;12.98;71.59
75555;BME280;66087;53.126;17.960;2023-08-08T03:06:09;99848.69;;;12.99;71.57
75555;BME280;66087;53.126;17.960;2023-08-08T03:08:37;99844.96;;;13.02;71.57
75555;BME280;66087;53.126;17.960;2023-08-08T03:11:05;99843.89;;;13.05;71.57
75555;BME280;66087;53.126;17.960;2023-08-08T03:13:52;99849.40;;;13.08;71.43
75555;BME280;66087;53.126;17.960;2023-08-08T03:16:19;99847.31;;;13.10;71.48
75555;BME280;66087;53.126;17.960;2023-08-08T03:18:47;99848.80;;;13.14;71.22
75555;BME280;66087;53.126;17.960;2023-08-08T03:21:14;99845.86;;;13.13;71.09
75555;BME280;66087;53.126;17.960;2023-08-08T03:23:44;99843.63;;;13.21;71.05
75555;BME280;66087;53.126;17.960;2023-08-08T03:26:12;99855.80;;;13.26;70.98
75555;BME280;66087;53.126;17.960;2023-08-08T03:28:39;99854.58;;;13.29;70.75
75555;BME280;66087;53.126;17.960;2023-08-08T03:31:09;99855.42;;;13.34;70.50
75555;BME280;66087;53.126;17.960;2023-08-08T03:33:36;99848.23;;;13.36;70.47
75555;BME280;66087;53.126;17.960;2023-08-08T03:36:04;99850.94;;;13.39;70.33
75555;BME280;66087;53.126;17.960;2023-08-08T03:38:31;99863.54;;;13.42;70.13
75555;BME280;66087;53.126;17.960;2023-08-08T03:40:58;99860.84;;;13.46;70.02
75555;BME280;66087;53.126;17.960;2023-08-08T03:43:25;99865.14;;;13.50;69.69
75555;BME280;66087;53.126;17.960;2023-08-08T03:45:52;99865.61;;;13.54;69.68
75555;BME280;66087;53.126;17.960;2023-08-08T03:48:22;99871.43;;;13.57;69.47
75555;BME280;66087;53.126;17.960;2023-08-08T03:50:50;99862.63;;;13.50;69.14
75555;BME280;66087;53.126;17.960;2023-08-08T03:53:18;99872.40;;;13.62;69.17
75555;BME280;66087;53.126;17.960;2023-08-08T03:55:44;99876.52;;;13.65;68.90
75555;BME280;66087;53.126;17.960;2023-08-08T03:58:33;99876.73;;;13.69;69.11
75555;BME280;66087;53.126;17.960;2023-08-08T04:01:00;99883.45;;;13.71;68.60
75555;BME280;66087;53.126;17.960;2023-08-08T04:03:30;99882.25;;;13.74;68.66
75555;BME280;66087;53.126;17.960;2023-08-08T04:05:57;99890.52;;;13.74;68.24
75555;BME280;66087;53.126;17.960;2023-08-08T04:08:24;99890.75;;;13.76;68.29
75555;BME280;66087;53.126;17.960;2023-08-08T04:10:51;99899.69;;;13.80;68.12
75555;BME280;66087;53.126;17.960;2023-08-08T04:13:18;99899.35;;;13.84;67.91
75555;BME280;66087;53.126;17.960;2023-08-08T04:15:45;99902.61;;;13.89;67.73
75555;BME280;66087;53.126;17.960;2023-08-08T04:18:12;99895.80;;;13.93;67.49
75555;BME280;66087;53.126;17.960;2023-08-08T04:20:38;99897.00;;;13.95;67.41
75555;BME280;66087;53.126;17.960;2023-08-08T04:23:09;99914.13;;;13.96;67.05
75555;BME280;66087;53.126;17.960;2023-08-08T04:25:41;99915.95;;;13.95;67.13
75555;BME280;66087;53.126;17.960;2023-08-08T04:28:13;99921.92;;;13.95;66.60
75555;BME280;66087;53.126;17.960;2023-08-08T04:30:39;99908.95;;;13.96;66.56
75555;BME280;66087;53.126;17.960;2023-08-08T04:33:06;99909.30;;;14.04;66.81
75555;BME280;66087;53.126;17.960;2023-08-08T04:35:36;99917.66;;;14.10;66.72
75555;BME280;66087;53.126;17.960;2023-08-08T04:38:08;99927.84;;;14.13;66.16
75555;BME280;66087;53.126;17.960;2023-08-08T04:40:35;99918.28;;;14.16;66.09
75555;BME280;66087;53.126;17.960;2023-08-08T04:43:02;99923.01;;;14.19;66.09
75555;BME280;66087;53.126;17.960;2023-08-08T04:45:29;99922.33;;;14.20;66.02
75555;BME280;66087;53.126;17.960;2023-08-08T04:47:56;99931.11;;;14.19;65.72
75555;BME280;66087;53.126;17.960;2023-08-08T04:50:23;99919.91;;;14.12;65.93
75555;BME280;66087;53.126;17.960;2023-08-08T04:52:51;99926.85;;;14.15;65.86
75555;BME280;66087;53.126;17.960;2023-08-08T04:55:19;99934.57;;;14.15;65.37
75555;BME280;66087;53.126;17.960;2023-08-08T04:57:46;99938.75;;;14.22;65.40
75555;BME280;66087;53.126;17.960;2023-08-08T05:00:14;99936.96;;;14.29;65.03
75555;BME280;66087;53.126;17.960;2023-08-08T05:02:41;99941.22;;;14.39;64.73
75555;BME280;66087;53.126;17.960;2023-08-08T05:05:09;99952.86;;;14.51;64.63
75555;BME280;66087;53.126;17.960;2023-08-08T05:07:40;99954.61;;;14.60;64.34
75555;BME280;66087;53.126;17.960;2023-08-08T05:10:07;99961.16;;;14.76;64.33
75555;BME280;66087;53.126;17.960;2023-08-08T05:12:39;99956.11;;;14.87;63.79
75555;BME280;66087;53.126;17.960;2023-08-08T05:15:07;99963.10;;;15.03;63.12
75555;BME280;66087;53.126;17.960;2023-08-08T05:17:34;99958.45;;;15.09;62.72
75555;BME280;66087;53.126;17.960;2023-08-08T05:20:09;99957.94;;;15.18;62.30
75555;BME280;66087;53.126;17.960;2023-08-08T05:22:36;99969.10;;;15.20;62.40
75555;BME280;66087;53.126;17.960;2023-08-08T05:25:08;99972.25;;;15.14;62.23
75555;BME280;66087;53.126;17.960;2023-08-08T05:27:36;99973.20;;;15.08;62.66
75555;BME280;66087;53.126;17.960;2023-08-08T05:30:04;99970.64;;;15.13;62.80
75555;BME280;66087;53.126;17.960;2023-08-08T05:32:33;99975.64;;;15.15;62.40
75555;BME280;66087;53.126;17.960;2023-08-08T05:35:00;99983.09;;;15.16;62.61
75555;BME280;66087;53.126;17.960;2023-08-08T05:37:30;99982.58;;;15.16;62.62
75555;BME280;66087;53.126;17.960;2023-08-08T05:39:57;99969.70;;;15.22;62.96
75555;BME280;66087;53.126;17.960;2023-08-08T05:42:27;99979.41;;;15.26;62.55
75555;BME280;66087;53.126;17.960;2023-08-08T05:44:54;99977.46;;;15.24;62.94
75555;BME280;66087;53.126;17.960;2023-08-08T05:47:22;99985.08;;;15.20;63.14
75555;BME280;66087;53.126;17.960;2023-08-08T05:49:48;99985.59;;;15.18;63.23
75555;BME280;66087;53.126;17.960;2023-08-08T05:52:15;99990.23;;;15.18;63.26
75555;BME280;66087;53.126;17.960;2023-08-08T05:54:42;99986.59;;;15.19;63.29
75555;BME280;66087;53.126;17.960;2023-08-08T05:57:09;99990.54;;;15.21;63.16
75555;BME280;66087;53.126;17.960;2023-08-08T05:59:36;99994.88;;;15.28;63.04
75555;BME280;66087;53.126;17.960;2023-08-08T06:02:03;100002.09;;;15.33;62.85
75555;BME280;66087;53.126;17.960;2023-08-08T06:04:29;100000.28;;;15.43;62.87
75555;BME280;66087;53.126;17.960;2023-08-08T06:06:56;100000.44;;;15.54;62.38
75555;BME280;66087;53.126;17.960;2023-08-08T06:09:24;100010.83;;;15.57;62.26
75555;BME280;66087;53.126;17.960;2023-08-08T06:11:51;100024.02;;;15.60;61.46
75555;BME280;66087;53.126;17.960;2023-08-08T06:14:35;100008.26;;;15.49;61.52
75555;BME280;66087;53.126;17.960;2023-08-08T06:17:02;100004.95;;;15.44;61.36
75555;BME280;66087;53.126;17.960;2023-08-08T06:19:34;99996.79;;;15.50;61.87
75555;BME280;66087;53.126;17.960;2023-08-08T06:22:13;100013.52;;;15.65;61.29
75555;BME280;66087;53.126;17.960;2023-08-08T06:24:40;100020.84;;;15.68;60.18
75555;BME280;66087;53.126;17.960;2023-08-08T06:27:06;100019.46;;;15.80;60.27
75555;BME280;66087;53.126;17.960;2023-08-08T06:29:33;100005.18;;;15.91;60.16
75555;BME280;66087;53.126;17.960;2023-08-08T06:32:00;100007.83;;;16.03;60.37
75555;BME280;66087;53.126;17.960;2023-08-08T06:34:27;100010.73;;;16.07;59.71
75555;BME280;66087;53.126;17.960;2023-08-08T06:36:54;100010.04;;;16.15;59.10
75555;BME280;66087;53.126;17.960;2023-08-08T06:39:20;100025.29;;;16.20;58.49
75555;BME280;66087;53.126;17.960;2023-08-08T06:41:49;100015.51;;;16.27;58.79
75555;BME280;66087;53.126;17.960;2023-08-08T06:44:18;100014.96;;;16.29;58.39
75555;BME280;66087;53.126;17.960;2023-08-08T06:46:45;100025.17;;;16.26;57.62
75555;BME280;66087;53.126;17.960;2023-08-08T06:49:14;100021.86;;;16.23;58.08
75555;BME280;66087;53.126;17.960;2023-08-08T06:51:41;100022.70;;;16.19;58.03
75555;BME280;66087;53.126;17.960;2023-08-08T06:54:10;100023.73;;;16.26;57.91
75555;BME280;66087;53.126;17.960;2023-08-08T06:56:41;100026.95;;;16.33;57.16
75555;BME280;66087;53.126;17.960;2023-08-08T06:59:08;100025.95;;;16.15;57.44
75555;BME280;66087;53.126;17.960;2023-08-08T07:01:49;100011.95;;;16.04;57.61
75555;BME280;66087;53.126;17.960;2023-08-08T07:04:17;100017.66;;;16.07;57.88
75555;BME280;66087;53.126;17.960;2023-08-08T07:06:44;100007.12;;;16.22;57.73
75555;BME280;66087;53.126;17.960;2023-08-08T07:09:13;100011.39;;;16.29;57.86
75555;BME280;66087;53.126;17.960;2023-08-08T07:11:41;100021.89;;;16.25;57.34
75555;BME280;66087;53.126;17.960;2023-08-08T07:14:08;100017.05;;;16.21;57.27
75555;BME280;66087;53.126;17.960;2023-08-08T07:16:35;100009.83;;;16.25;58.01
75555;BME280;66087;53.126;17.960;2023-08-08T07:19:03;100016.86;;;16.25;57.37
75555;BME280;66087;53.126;17.960;2023-08-08T07:21:31;100016.09;;;16.24;57.64
75555;BME280;66087;53.126;17.960;2023-08-08T07:23:58;100022.60;;;16.24;57.01
75555;BME280;66087;53.126;17.960;2023-08-08T07:26:25;100024.73;;;16.21;56.77
75555;BME280;66087;53.126;17.960;2023-08-08T07:28:52;100027.86;;;16.22;56.72
75555;BME280;66087;53.126;17.960;2023-08-08T07:31:24;100027.94;;;16.29;56.47
75555;BME280;66087;53.126;17.960;2023-08-08T07:33:51;100025.54;;;16.35;57.03
75555;BME280;66087;53.126;17.960;2023-08-08T07:36:19;100034.26;;;16.52;56.60
75555;BME280;66087;53.126;17.960;2023-08-08T07:38:46;100037.22;;;16.52;55.71
75555;BME280;66087;53.126;17.960;2023-08-08T07:41:13;100035.02;;;16.66;55.67
75555;BME280;66087;53.126;17.960;2023-08-08T07:43:42;100036.36;;;16.88;55.75
75555;BME280;66087;53.126;17.960;2023-08-08T07:46:09;100053.39;;;17.03;55.20
75555;BME280;66087;53.126;17.960;2023-08-08T07:48:38;100041.65;;;17.15;54.35
75555;BME280;66087;53.126;17.960;2023-08-08T07:51:05;100044.63;;;17.36;54.83
75555;BME280;66087;53.126;17.960;2023-08-08T07:53:31;100038.34;;;17.56;55.27
75555;BME280;66087;53.126;17.960;2023-08-08T07:55:58;100037.64;;;17.66;54.29
75555;BME280;66087;53.126;17.960;2023-08-08T07:58:33;100052.94;;;17.66;54.03
75555;BME280;66087;53.126;17.960;2023-08-08T08:01:04;100046.30;;;17.62;53.49
75555;BME280;66087;53.126;17.960;2023-08-08T08:03:31;100039.56;;;17.59;54.07
75555;BME280;66087;53.126;17.960;2023-08-08T08:05:59;100044.16;;;17.75;54.23
75555;BME280;66087;53.126;17.960;2023-08-08T08:08:28;100048.57;;;17.88;53.91
75555;BME280;66087;53.126;17.960;2023-08-08T08:10:58;100059.88;;;17.89;53.25
75555;BME280;66087;53.126;17.960;2023-08-08T08:13:25;100069.01;;;17.82;52.77
75555;BME280;66087;53.126;17.960;2023-08-08T08:15:56;100063.45;;;17.79;52.93
75555;BME280;66087;53.126;17.960;2023-08-08T08:18:24;100082.70;;;17.74;52.53
75555;BME280;66087;53.126;17.960;2023-08-08T08:20:55;100076.96;;;17.69;52.92
75555;BME280;66087;53.126;17.960;2023-08-08T08:23:22;100077.00;;;17.72;52.87
75555;BME280;66087;53.126;17.960;2023-08-08T08:25:50;100094.14;;;17.66;52.79
75555;BME280;66087;53.126;17.960;2023-08-08T08:28:22;100085.14;;;17.63;52.94
75555;BME280;66087;53.126;17.960;2023-08-08T08:30:50;100087.80;;;17.52;52.22
75555;BME280;66087;53.126;17.960;2023-08-08T08:33:17;100096.08;;;17.56;52.47
75555;BME280;66087;53.126;17.960;2023-08-08T08:35:44;100097.46;;;17.65;52.53
75555;BME280;66087;53.126;17.960;2023-08-08T08:38:14;100086.70;;;17.64;52.45
75555;BME280;66087;53.126;17.960;2023-08-08T08:40:41;100081.58;;;17.73;52.78
75555;BME280;66087;53.126;17.960;2023-08-08T08:43:11;100081.92;;;17.92;52.77
75555;BME280;66087;53.126;17.960;2023-08-08T08:45:39;100086.61;;;18.02;52.42
75555;BME280;66087;53.126;17.960;2023-08-08T08:48:10;100082.39;;;18.11;52.54
75555;BME280;66087;53.126;17.960;2023-08-08T08:50:39;100086.80;;;18.29;52.05
75555;BME280;66087;53.126;17.960;2023-08-08T08:53:07;100099.98;;;18.33;51.94
75555;BME280;66087;53.126;17.960;2023-08-08T08:55:34;100096.14;;;18.11;51.55
75555;BME280;66087;53.126;17.960;2023-08-08T08:58:03;100086.86;;;18.09;52.35
75555;BME280;66087;53.126;17.960;2023-08-08T09:00:51;100081.64;;;18.20;52.28
75555;BME280;66087;53.126;17.960;2023-08-08T09:03:18;100094.83;;;18.29;52.19
75555;BME280;66087;53.126;17.960;2023-08-08T09:05:47;100097.70;;;18.25;52.00
75555;BME280;66087;53.126;17.960;2023-08-08T09:08:20;100101.55;;;18.31;52.01
75555;BME280;66087;53.126;17.960;2023-08-08T09:10:48;100096.73;;;18.50;51.40
75555;BME280;66087;53.126;17.960;2023-08-08T09:13:16;100104.66;;;18.66;51.69
75555;BME280;66087;53.126;17.960;2023-08-08T09:15:47;100104.45;;;18.71;51.01
75555;BME280;66087;53.126;17.960;2023-08-08T09:18:15;100109.77;;;18.75;50.56
75555;BME280;66087;53.126;17.960;2023-08-08T09:20:47;100108.85;;;18.77;49.99
75555;BME280;66087;53.126;17.960;2023-08-08T09:23:18;100114.64;;;18.85;50.16
75555;BME280;66087;53.126;17.960;2023-08-08T09:25:45;100101.90;;;19.05;50.34
75555;BME280;66087;53.126;17.960;2023-08-08T09:28:12;100116.41;;;19.24;50.34
75555;BME280;66087;53.126;17.960;2023-08-08T09:30:41;100116.65;;;19.46;49.80
75555;BME280;66087;53.126;17.960;2023-08-08T09:33:09;100129.14;;;19.45;49.06
75555;BME280;66087;53.126;17.960;2023-08-08T09:35:38;100121.39;;;19.33;49.48
75555;BME280;66087;53.126;17.960;2023-08-08T09:38:10;100113.87;;;19.22;49.78
75555;BME280;66087;53.126;17.960;2023-08-08T09:40:38;100121.03;;;19.18;49.58
75555;BME280;66087;53.126;17.960;2023-08-08T09:43:11;100125.59;;;19.04;49.62
75555;BME280;66087;53.126;17.960;2023-08-08T09:45:39;100119.02;;;18.88;49.90
75555;BME280;66087;53.126;17.960;2023-08-08T09:48:08;100133.60;;;18.84;49.58
75555;BME280;66087;53.126;17.960;2023-08-08T09:50:35;100128.58;;;18.90;49.80
75555;BME280;66087;53.126;17.960;2023-08-08T09:53:05;100128.11;;;19.03;49.76
75555;BME280;66087;53.126;17.960;2023-08-08T09:55:32;100122.52;;;19.17;49.76
75555;BME280;66087;53.126;17.960;2023-08-08T09:58:00;100124.73;;;19.33;50.01
75555;BME280;66087;53.126;17.960;2023-08-08T10:00:30;100124.77;;;19.52;49.87
75555;BME280;66087;53.126;17.960;2023-08-08T10:03:10;100139.23;;;19.78;49.67
75555;BME280;66087;53.126;17.960;2023-08-08T10:05:38;100128.52;;;19.98;49.47
75555;BME280;66087;53.126;17.960;2023-08-08T10:08:05;100119.59;;;20.08;49.08
75555;BME280;66087;53.126;17.960;2023-08-08T10:10:33;100122.90;;;20.21;48.67
75555;BME280;66087;53.126;17.960;2023-08-08T10:13:01;100127.82;;;20.30;47.63
75555;BME280;66087;53.126;17.960;2023-08-08T10:15:31;100129.77;;;20.44;47.15
75555;BME280;66087;53.126;17.960;2023-08-08T10:18:00;100127.99;;;20.54;46.48
75555;BME280;66087;53.126;17.960;2023-08-08T10:20:31;100118.64;;;20.53;46.38
75555;BME280;66087;53.126;17.960;2023-08-08T10:23:03;100119.64;;;20.47;46.78
75555;BME280;66087;53.126;17.960;2023-08-08T10:25:30;100113.92;;;20.58;46.90
75555;BME280;66087;53.126;17.960;2023-08-08T10:28:10;100118.02;;;20.79;46.37
75555;BME280;66087;53.126;17.960;2023-08-08T10:30:52;100118.64;;;20.79;46.14
75555;BME280;66087;53.126;17.960;2023-08-08T10:33:24;100127.09;;;20.77;46.09
75555;BME280;66087;53.126;17.960;2023-08-08T10:36:03;100142.31;;;20.72;44.98
75555;BME280;66087;53.126;17.960;2023-08-08T10:38:44;100127.88;;;20.68;45.31
75555;BME280;66087;53.126;17.960;2023-08-08T10:41:17;100130.73;;;20.67;44.91
75555;BME280;66087;53.126;17.960;2023-08-08T10:43:50;100125.05;;;20.56;44.65
75555;BME280;66087;53.126;17.960;2023-08-08T10:46:27;100113.08;;;20.27;45.44
75555;BME280;66087;53.126;17.960;2023-08-08T10:48:56;100124.48;;;20.20;46.01
75555;BME280;66087;53.126;17.960;2023-08-08T10:51:36;100127.06;;;20.16;45.75
75555;BME280;66087;53.126;17.960;2023-08-08T10:54:06;100132.84;;;20.39;45.79
75555;BME280;66087;53.126;17.960;2023-08-08T10:56:35;100120.17;;;20.66;45.39
75555;BME280;66087;53.126;17.960;2023-08-08T10:59:15;100113.19;;;20.74;45.58
75555;BME280;66087;53.126;17.960;2023-08-08T11:01:48;100130.91;;;20.29;45.44
75555;BME280;66087;53.126;17.960;2023-08-08T11:04:18;100131.35;;;19.86;46.16
75555;BME280;66087;53.126;17.960;2023-08-08T11:06:49;100126.11;;;19.59;46.97
75555;BME280;66087;53.126;17.960;2023-08-08T11:09:20;100141.98;;;19.60;47.16
75555;BME280;66087;53.126;17.960;2023-08-08T11:11:47;100127.71;;;19.84;47.11
75555;BME280;66087;53.126;17.960;2023-08-08T11:14:16;100130.98;;;20.12;46.49
75555;BME280;66087;53.126;17.960;2023-08-08T11:16:45;100131.42;;;20.10;46.48
75555;BME280;66087;53.126;17.960;2023-08-08T11:19:17;100134.42;;;19.93;47.22
75555;BME280;66087;53.126;17.960;2023-08-08T11:21:49;100138.98;;;19.70;47.41
75555;BME280;66087;53.126;17.960;2023-08-08T11:24:17;100149.61;;;19.73;46.86
75555;BME280;66087;53.126;17.960;2023-08-08T11:26:44;100139.33;;;19.96;47.16
75555;BME280;66087;53.126;17.960;2023-08-08T11:29:13;100139.05;;;20.29;47.04
75555;BME280;66087;53.126;17.960;2023-08-08T11:31:40;100132.65;;;20.47;47.27
75555;BME280;66087;53.126;17.960;2023-08-08T11:34:08;100129.20;;;20.71;47.49
75555;BME280;66087;53.126;17.960;2023-08-08T11:36:42;100133.01;;;20.58;46.78
75555;BME280;66087;53.126;17.960;2023-08-08T11:39:10;100131.11;;;20.33;46.33
75555;BME280;66087;53.126;17.960;2023-08-08T11:41:40;100139.96;;;20.45;45.91
75555;BME280;66087;53.126;17.960;2023-08-08T11:44:08;100147.48;;;20.84;46.01
75555;BME280;66087;53.126;17.960;2023-08-08T11:46:45;100152.33;;;21.25;44.76
75555;BME280;66087;53.126;17.960;2023-08-08T11:49:16;100150.16;;;21.34;44.32
75555;BME280;66087;53.126;17.960;2023-08-08T11:51:47;100141.83;;;21.37;44.80
75555;BME280;66087;53.126;17.960;2023-08-08T11:54:15;100144.92;;;21.33;44.46
75555;BME280;66087;53.126;17.960;2023-08-08T11:56:43;100136.40;;;21.39;44.91
75555;BME280;66087;53.126;17.960;2023-08-08T11:59:10;100148.71;;;21.37;44.05
75555;BME280;66087;53.126;17.960;2023-08-08T12:01:39;100129.14;;;21.33;44.47
75555;BME280;66087;53.126;17.960;2023-08-08T12:04:08;100130.02;;;21.39;44.63
75555;BME280;66087;53.126;17.960;2023-08-08T12:06:37;100125.95;;;21.60;44.01
75555;BME280;66087;53.126;17.960;2023-08-08T12:09:07;100139.80;;;21.65;43.30
75555;BME280;66087;53.126;17.960;2023-08-08T12:11:39;100133.92;;;21.69;43.85
75555;BME280;66087;53.126;17.960;2023-08-08T12:14:11;100131.42;;;21.91;43.37
75555;BME280;66087;53.126;17.960;2023-08-08T12:16:42;100138.11;;;21.81;42.13
75555;BME280;66087;53.126;17.960;2023-08-08T12:19:10;100124.30;;;21.81;42.72
75555;BME280;66087;53.126;17.960;2023-08-08T12:21:37;100117.83;;;22.10;42.46
75555;BME280;66087;53.126;17.960;2023-08-08T12:24:04;100129.52;;;22.48;41.43
75555;BME280;66087;53.126;17.960;2023-08-08T12:26:31;100115.08;;;22.86;40.63
75555;BME280;66087;53.126;17.960;2023-08-08T12:28:58;100122.52;;;23.26;39.72
75555;BME280;66087;53.126;17.960;2023-08-08T12:31:25;100125.80;;;23.23;38.80
75555;BME280;66087;53.126;17.960;2023-08-08T12:33:52;100115.89;;;23.13;39.40
75555;BME280;66087;53.126;17.960;2023-08-08T12:36:19;100107.13;;;23.11;40.26
75555;BME280;66087;53.126;17.960;2023-08-08T12:38:46;100100.27;;;23.04;40.39
75555;BME280;66087;53.126;17.960;2023-08-08T12:41:13;100107.45;;;22.98;41.00
75555;BME280;66087;53.126;17.960;2023-08-08T12:43:40;100112.59;;;23.04;40.97
75555;BME280;66087;53.126;17.960;2023-08-08T12:46:07;100117.13;;;23.25;40.13
75555;BME280;66087;53.126;17.960;2023-08-08T12:48:34;100113.23;;;23.59;40.36
75555;BME280;66087;53.126;17.960;2023-08-08T12:51:01;100112.80;;;23.90;39.47
75555;BME280;66087;53.126;17.960;2023-08-08T12:53:28;100120.02;;;24.06;38.25
75555;BME280;66087;53.126;17.960;2023-08-08T12:55:54;100116.29;;;23.97;38.20
75555;BME280;66087;53.126;17.960;2023-08-08T12:58:21;100120.52;;;23.56;38.36